»·PEaware :: QXE751 KBOI-KSLC

QXE751 :: KBOI-KSLC

FLIGHT INFORMATION

Flight Status: Arrived
Operator:
Horizon Air
More flights by this operator :: More flights under this callsign
Pilot: Mitchell L. (19304)
Aircraft: DEHAVILLAND DASH 8 400
(DH8D)
More flights by this aircraft type
Origin: KBOI Boise Air Terminal/Gowen
United States
Destination: KSLC Salt Lake City Intl
United States
More flights between these airports :: More routes between these airports
Route: +BOI ROARR BYI BEARR5
File this flight plan on PilotEdge
Remarks:
Altitude:
(Current/Filed)
23,000ft
Speed:
(Current/Filed)
400kts
Departed: 22-Jun-18 11:57 AM
Arrived: 22-Jun-18 12:52 PM
Distance/Time
Traveled:
252nm/0:55
Distance/Time
To Go:
Arrived

Flight Plot

Page will automatically refresh every two minutes.

Flight plan parsing failed; only flown route is shown


Map Options




Map Legend


Flown Route
Filed Route
Departure Airport
Arrival Airport
Navaid (VOR, NDB)
Fix

Horizontal Profiles

Position Reports

Time Latitude Longitude Heading Altitude Ground
Speed
22-Jun-18 11:17 43.567142 -116.220333 21 2878ft 0kts
22-Jun-18 11:18 43.567142 -116.220333 21 2878ft 0kts
22-Jun-18 11:19 43.567142 -116.220333 21 2878ft 0kts
22-Jun-18 11:20 43.567142 -116.220333 21 2878ft 0kts
22-Jun-18 11:21 43.567142 -116.220333 21 2878ft 0kts
22-Jun-18 11:22 43.567142 -116.220333 21 2878ft 0kts
22-Jun-18 11:23 43.567142 -116.220333 21 2878ft 0kts
22-Jun-18 11:24 43.567142 -116.220333 21 2878ft 0kts
22-Jun-18 11:25 43.567142 -116.220333 21 2878ft 0kts
22-Jun-18 11:26 43.567142 -116.220333 21 2878ft 0kts
22-Jun-18 11:27 43.567142 -116.220333 21 2878ft 0kts
22-Jun-18 11:28 43.567142 -116.220333 21 2878ft 0kts
22-Jun-18 11:29 43.567142 -116.220333 21 2878ft 0kts
22-Jun-18 11:30 43.567142 -116.220333 21 2878ft 0kts
22-Jun-18 11:31 43.567142 -116.220333 21 2878ft 0kts
22-Jun-18 11:32 43.567142 -116.220333 21 2878ft 0kts
22-Jun-18 11:33 43.567142 -116.220333 21 2878ft 0kts
22-Jun-18 11:34 43.567142 -116.220333 21 2878ft 0kts
22-Jun-18 11:35 43.567142 -116.220333 21 2878ft 0kts
22-Jun-18 11:36 43.567142 -116.220333 21 2878ft 0kts
22-Jun-18 11:37 43.567142 -116.220333 21 2878ft 0kts
22-Jun-18 11:38 43.567142 -116.220333 21 2878ft 0kts
22-Jun-18 11:39 43.567142 -116.220333 21 2878ft 0kts
22-Jun-18 11:40 43.567142 -116.220333 21 2878ft 0kts
22-Jun-18 11:41 43.567142 -116.220333 21 2878ft 0kts
22-Jun-18 11:42 43.567142 -116.220333 21 2878ft 0kts
22-Jun-18 11:43 43.567142 -116.220333 21 2878ft 0kts
22-Jun-18 11:44 43.566963 -116.220430 21 2878ft 2kts
22-Jun-18 11:45 43.566514 -116.220268 293 2878ft 1kts
22-Jun-18 11:46 43.566497 -116.220209 289 2878ft 0kts
22-Jun-18 11:47 43.566498 -116.220209 289 2878ft 0kts
22-Jun-18 11:48 43.566498 -116.220210 289 2878ft 0kts
22-Jun-18 11:49 43.566498 -116.220210 289 2878ft 0kts
22-Jun-18 11:50 43.566498 -116.220210 289 2878ft 0kts
22-Jun-18 11:51 43.566499 -116.220216 289 2878ft 0kts
22-Jun-18 11:52 43.566841 -116.223314 296 2878ft 18kts
22-Jun-18 11:53 43.569747 -116.231777 295 2878ft 28kts
22-Jun-18 11:54 43.570883 -116.235798 227 2878ft 0kts
22-Jun-18 11:55 43.570878 -116.235806 227 2878ft 0kts
22-Jun-18 11:56 43.569932 -116.235885 128 2878ft 12kts
22-Jun-18 11:57 43.557282 -116.194465 111 3813ft 188kts
22-Jun-18 11:58 43.535212 -116.119356 111 5766ft 240kts
22-Jun-18 11:59 43.509163 -116.027997 110 7558ft 262kts
22-Jun-18 12:00 43.483046 -115.934067 110 9489ft 264kts
22-Jun-18 12:01 43.453757 -115.842582 115 11410ft 266kts
22-Jun-18 12:02 43.420268 -115.743884 115 13856ft 301kts
22-Jun-18 12:03 43.383972 -115.637438 115 16384ft 315kts
22-Jun-18 12:04 43.346544 -115.528095 116 18897ft 318kts
22-Jun-18 12:05 43.308554 -115.417606 115 20937ft 330kts
22-Jun-18 12:06 43.263689 -115.307824 123 22288ft 351kts
22-Jun-18 12:07 43.209415 -115.190865 124 23040ft 378kts
22-Jun-18 12:08 43.150872 -115.065362 123 23153ft 403kts
22-Jun-18 12:09 43.089762 -114.934536 123 23245ft 405kts
22-Jun-18 12:10 43.029852 -114.806823 123 23176ft 396kts
22-Jun-18 12:11 42.970446 -114.680808 122 23177ft 395kts
22-Jun-18 12:12 42.910558 -114.554286 122 23180ft 398kts
22-Jun-18 12:13 42.851049 -114.429066 122 23175ft 401kts
22-Jun-18 12:14 42.791658 -114.304614 122 23170ft 401kts
22-Jun-18 12:15 42.730750 -114.177559 122 23169ft 401kts
22-Jun-18 12:16 42.669698 -114.050739 122 23165ft 402kts
22-Jun-18 12:17 42.608448 -113.924045 122 23164ft 402kts
22-Jun-18 12:18 42.537117 -113.808370 135 23165ft 401kts
22-Jun-18 12:19 42.457884 -113.701774 136 23166ft 402kts
22-Jun-18 12:20 42.378605 -113.595941 136 23168ft 402kts
22-Jun-18 12:21 42.298707 -113.489688 136 23169ft 403kts
22-Jun-18 12:22 42.219024 -113.384127 136 23170ft 403kts
22-Jun-18 12:23 42.141350 -113.281608 136 23164ft 403kts
22-Jun-18 12:24 42.061316 -113.176375 136 22965ft 408kts
22-Jun-18 12:25 41.980004 -113.069839 136 21980ft 398kts
22-Jun-18 12:26 41.903224 -112.969594 136 20966ft 375kts
22-Jun-18 12:27 41.830771 -112.875357 136 19991ft 372kts
22-Jun-18 12:28 41.756873 -112.779557 136 18994ft 369kts
22-Jun-18 12:29 41.683650 -112.684958 136 18003ft 366kts
22-Jun-18 12:30 41.610382 -112.591621 144 16991ft 362kts
22-Jun-18 12:31 41.526372 -112.532548 114 15956ft 359kts
22-Jun-18 12:32 41.461684 -112.438334 149 14986ft 350kts
22-Jun-18 12:33 41.378939 -112.374057 151 14006ft 344kts
22-Jun-18 12:34 41.298492 -112.313564 152 13039ft 340kts
22-Jun-18 12:35 41.219344 -112.254278 151 12004ft 313kts
22-Jun-18 12:36 41.146139 -112.199596 151 11140ft 290kts
22-Jun-18 12:37 41.078078 -112.150774 169 11020ft 273kts
22-Jun-18 12:38 41.002555 -112.133657 171 11052ft 279kts
22-Jun-18 12:39 40.925683 -112.115568 171 11049ft 284kts
22-Jun-18 12:40 40.850842 -112.098191 171 11036ft 286kts
22-Jun-18 12:41 40.773803 -112.080516 171 11027ft 287kts
22-Jun-18 12:42 40.693517 -112.062390 171 9870ft 299kts
22-Jun-18 12:43 40.617280 -112.045829 171 8332ft 268kts
22-Jun-18 12:44 40.550410 -112.031183 171 8040ft 229kts
22-Jun-18 12:45 40.516812 -111.988412 55 8006ft 192kts
22-Jun-18 12:46 40.562659 -111.958511 12 7628ft 192kts
22-Jun-18 12:47 40.617439 -111.955434 356 6359ft 204kts
22-Jun-18 12:48 40.673920 -111.961432 354 5039ft 205kts
22-Jun-18 12:49 40.718089 -111.966543 354 5063ft 141kts
22-Jun-18 12:50 40.758082 -111.971166 355 4656ft 150kts
22-Jun-18 12:51 40.785262 -111.974370 354 4234ft 47kts
22-Jun-18 12:52 40.788614 -111.976778 322 4234ft 8kts
22-Jun-18 12:53 40.790108 -111.978564 246 4234ft 7kts
22-Jun-18 12:54 40.788272 -111.979451 84 4234ft 5kts
22-Jun-18 12:55 40.788306 -111.979245 80 4234ft 0kts
22-Jun-18 12:56 40.788305 -111.979245 80 4234ft 0kts
22-Jun-18 12:57 40.788305 -111.979245 80 4234ft 0kts

Navigation Log

Ident Type
Flight plan parsing failed, navigation log unavailable